sensor_id;sensor_type;location;lat;lon;timestamp;pressure;altitude;pressure_sealevel;temperature;humidity
3132;BME280;62090;52.330;9.104;2023-08-20T00:00:21;101531.00;;;24.32;95.84
3132;BME280;62090;52.330;9.104;2023-08-20T00:02:57;101526.97;;;24.16;94.21
3132;BME280;62090;52.330;9.104;2023-08-20T00:05:29;101496.19;;;23.90;94.46
3132;BME280;62090;52.330;9.104;2023-08-20T00:08:01;101551.94;;;24.28;94.49
3132;BME280;62090;52.330;9.104;2023-08-20T00:10:32;101536.53;;;24.16;94.45
3132;BME280;62090;52.330;9.104;2023-08-20T00:13:02;101557.06;;;24.32;93.73
3132;BME280;62090;52.330;9.104;2023-08-20T00:15:32;101555.28;;;24.34;93.00
3132;BME280;62090;52.330;9.104;2023-08-20T00:18:03;101549.41;;;24.25;92.66
3132;BME280;62090;52.330;9.104;2023-08-20T00:20:34;101561.47;;;24.30;93.89
3132;BME280;62090;52.330;9.104;2023-08-20T00:23:07;101563.09;;;24.34;93.59
3132;BME280;62090;52.330;9.104;2023-08-20T00:25:38;101557.25;;;24.22;93.83
3132;BME280;62090;52.330;9.104;2023-08-20T00:28:08;101551.25;;;24.18;93.59
3132;BME280;62090;52.330;9.104;2023-08-20T00:30:38;101581.34;;;24.34;93.79
3132;BME280;62090;52.330;9.104;2023-08-20T00:33:08;101580.56;;;24.29;93.99
3132;BME280;62090;52.330;9.104;2023-08-20T00:35:38;101522.97;;;23.97;93.96
3132;BME280;62090;52.330;9.104;2023-08-20T00:38:11;101567.53;;;24.31;94.52
3132;BME280;62090;52.330;9.104;2023-08-20T00:40:40;101546.06;;;24.18;93.04
3132;BME280;62090;52.330;9.104;2023-08-20T00:43:10;101541.13;;;24.02;93.61
3132;BME280;62090;52.330;9.104;2023-08-20T00:45:40;101577.28;;;24.21;93.44
3132;BME280;62090;52.330;9.104;2023-08-20T00:48:11;101579.03;;;24.19;94.18
3132;BME280;62090;52.330;9.104;2023-08-20T00:50:41;101519.84;;;23.78;94.30
3132;BME280;62090;52.330;9.104;2023-08-20T00:53:14;101567.84;;;24.11;94.01
3132;BME280;62090;52.330;9.104;2023-08-20T00:55:45;101570.59;;;24.04;94.13
3132;BME280;62090;52.330;9.104;2023-08-20T00:58:15;101515.91;;;23.54;93.79
3132;BME280;62090;52.330;9.104;2023-08-20T01:00:45;101472.06;;;23.32;93.79
3132;BME280;62090;52.330;9.104;2023-08-20T01:03:15;101576.97;;;23.87;93.98
3132;BME280;62090;52.330;9.104;2023-08-20T01:05:50;101572.63;;;23.88;94.32
3132;BME280;62090;52.330;9.104;2023-08-20T01:08:29;101571.81;;;23.84;93.80
3132;BME280;62090;52.330;9.104;2023-08-20T01:11:08;101541.91;;;23.58;93.66
3132;BME280;62090;52.330;9.104;2023-08-20T01:13:39;101538.56;;;23.49;93.88
3132;BME280;62090;52.330;9.104;2023-08-20T01:16:09;101560.84;;;23.66;94.26
3132;BME280;62090;52.330;9.104;2023-08-20T01:18:40;101549.66;;;23.61;94.08
3132;BME280;62090;52.330;9.104;2023-08-20T01:21:19;101550.53;;;23.60;93.72
3132;BME280;62090;52.330;9.104;2023-08-20T01:24:08;101529.28;;;23.32;93.62
3132;BME280;62090;52.330;9.104;2023-08-20T01:26:52;101532.97;;;23.17;94.85
3132;BME280;62090;52.330;9.104;2023-08-20T01:29:28;101544.22;;;23.16;96.20
3132;BME280;62090;52.330;9.104;2023-08-20T01:31:59;101549.41;;;23.19;95.68
3132;BME280;62090;52.330;9.104;2023-08-20T01:34:29;101546.91;;;23.13;95.99
3132;BME280;62090;52.330;9.104;2023-08-20T01:36:59;101485.91;;;22.76;96.28
3132;BME280;62090;52.330;9.104;2023-08-20T01:39:29;101540.84;;;23.11;95.62
3132;BME280;62090;52.330;9.104;2023-08-20T01:41:59;101518.50;;;22.99;95.82
3132;BME280;62090;52.330;9.104;2023-08-20T01:44:32;101446.38;;;22.52;95.35
3132;BME280;62090;52.330;9.104;2023-08-20T01:47:01;101483.31;;;22.74;95.50
3132;BME280;62090;52.330;9.104;2023-08-20T01:49:31;101544.38;;;23.07;94.51
3132;BME280;62090;52.330;9.104;2023-08-20T01:52:01;101549.66;;;23.01;95.33
3132;BME280;62090;52.330;9.104;2023-08-20T01:54:31;101557.50;;;22.99;95.37
3132;BME280;62090;52.330;9.104;2023-08-20T01:57:01;101558.38;;;22.97;94.94
3132;BME280;62090;52.330;9.104;2023-08-20T01:59:35;101553.25;;;22.94;94.66
3132;BME280;62090;52.330;9.104;2023-08-20T02:02:05;101530.94;;;22.78;94.91
3132;BME280;62090;52.330;9.104;2023-08-20T02:04:35;101479.31;;;22.47;95.09
3132;BME280;62090;52.330;9.104;2023-08-20T02:07:05;101550.72;;;22.88;94.63
3132;BME280;62090;52.330;9.104;2023-08-20T02:09:35;101543.13;;;22.72;95.03
3132;BME280;62090;52.330;9.104;2023-08-20T02:12:06;101565.53;;;22.83;95.37
3132;BME280;62090;52.330;9.104;2023-08-20T02:14:38;101562.94;;;22.83;94.66
3132;BME280;62090;52.330;9.104;2023-08-20T02:17:09;101508.16;;;22.26;95.53
3132;BME280;62090;52.330;9.104;2023-08-20T02:19:39;101565.13;;;22.41;96.14
3132;BME280;62090;52.330;9.104;2023-08-20T02:22:09;101545.34;;;22.28;96.99
3132;BME280;62090;52.330;9.104;2023-08-20T02:24:39;101541.88;;;22.30;97.56
3132;BME280;62090;52.330;9.104;2023-08-20T02:27:08;101562.41;;;22.50;96.73
3132;BME280;62090;52.330;9.104;2023-08-20T02:29:41;101565.00;;;22.52;95.94
3132;BME280;62090;52.330;9.104;2023-08-20T02:32:14;101488.75;;;21.75;97.00
3132;BME280;62090;52.330;9.104;2023-08-20T02:34:49;101576.72;;;22.08;98.31
3132;BME280;62090;52.330;9.104;2023-08-20T02:37:19;101580.28;;;21.98;99.42
3132;BME280;62090;52.330;9.104;2023-08-20T02:39:49;101583.75;;;21.92;98.69
3132;BME280;62090;52.330;9.104;2023-08-20T02:42:19;101584.66;;;21.88;100.00
3132;BME280;62090;52.330;9.104;2023-08-20T02:44:51;101597.59;;;21.91;99.79
3132;BME280;62090;52.330;9.104;2023-08-20T02:47:21;101586.34;;;21.91;99.24
3132;BME280;62090;52.330;9.104;2023-08-20T02:49:51;101586.41;;;21.88;100.00
3132;BME280;62090;52.330;9.104;2023-08-20T02:52:22;101584.63;;;21.91;100.00
3132;BME280;62090;52.330;9.104;2023-08-20T02:54:51;101577.72;;;21.92;99.92
3132;BME280;62090;52.330;9.104;2023-08-20T02:57:21;101520.84;;;21.63;99.35
3132;BME280;62090;52.330;9.104;2023-08-20T02:59:54;101580.41;;;21.81;100.00
3132;BME280;62090;52.330;9.104;2023-08-20T03:02:24;101589.97;;;21.73;99.67
3132;BME280;62090;52.330;9.104;2023-08-20T03:04:55;101571.84;;;21.70;99.96
3132;BME280;62090;52.330;9.104;2023-08-20T03:07:25;101574.47;;;21.67;100.00
3132;BME280;62090;52.330;9.104;2023-08-20T03:09:55;101574.44;;;21.70;100.00
3132;BME280;62090;52.330;9.104;2023-08-20T03:12:25;101552.06;;;21.54;100.00
3132;BME280;62090;52.330;9.104;2023-08-20T03:14:57;101506.38;;;21.41;100.00
3132;BME280;62090;52.330;9.104;2023-08-20T03:17:28;101575.25;;;21.75;100.00
3132;BME280;62090;52.330;9.104;2023-08-20T03:19:59;101585.59;;;21.80;99.54
3132;BME280;62090;52.330;9.104;2023-08-20T03:22:33;101525.44;;;21.31;97.71
3132;BME280;62090;52.330;9.104;2023-08-20T03:25:04;101569.38;;;21.57;96.50
3132;BME280;62090;52.330;9.104;2023-08-20T03:27:34;101561.69;;;21.40;96.54
3132;BME280;62090;52.330;9.104;2023-08-20T03:30:08;101507.47;;;21.00;95.54
3132;BME280;62090;52.330;9.104;2023-08-20T03:32:38;101510.94;;;21.01;96.64
3132;BME280;62090;52.330;9.104;2023-08-20T03:35:08;101537.66;;;21.20;96.95
3132;BME280;62090;52.330;9.104;2023-08-20T03:37:38;101598.81;;;21.49;96.65
3132;BME280;62090;52.330;9.104;2023-08-20T03:40:09;101617.03;;;21.39;96.93
3132;BME280;62090;52.330;9.104;2023-08-20T03:42:39;101610.13;;;21.35;97.04
3132;BME280;62090;52.330;9.104;2023-08-20T03:45:12;101536.06;;;20.88;96.98
3132;BME280;62090;52.330;9.104;2023-08-20T03:47:42;101611.88;;;21.33;98.80
3132;BME280;62090;52.330;9.104;2023-08-20T03:50:16;101609.22;;;21.43;98.31
3132;BME280;62090;52.330;9.104;2023-08-20T03:52:45;101603.09;;;21.52;98.37
3132;BME280;62090;52.330;9.104;2023-08-20T03:55:16;101598.75;;;21.54;97.38
3132;BME280;62090;52.330;9.104;2023-08-20T03:57:46;101607.44;;;21.48;99.01
3132;BME280;62090;52.330;9.104;2023-08-20T04:00:19;101591.13;;;21.36;98.64
3132;BME280;62090;52.330;9.104;2023-08-20T04:02:49;101564.47;;;21.05;99.14
3132;BME280;62090;52.330;9.104;2023-08-20T04:05:19;101608.41;;;21.31;99.15
3132;BME280;62090;52.330;9.104;2023-08-20T04:07:49;101611.03;;;21.29;99.68
3132;BME280;62090;52.330;9.104;2023-08-20T04:10:20;101613.63;;;21.28;99.98
3132;BME280;62090;52.330;9.104;2023-08-20T04:12:50;101566.19;;;21.04;99.63
3132;BME280;62090;52.330;9.104;2023-08-20T04:15:23;101608.38;;;21.38;99.75
3132;BME280;62090;52.330;9.104;2023-08-20T04:17:54;101604.97;;;21.35;99.30
3132;BME280;62090;52.330;9.104;2023-08-20T04:20:24;101568.75;;;21.12;98.60
3132;BME280;62090;52.330;9.104;2023-08-20T04:22:54;101620.47;;;21.41;98.09
3132;BME280;62090;52.330;9.104;2023-08-20T04:25:24;101621.34;;;21.40;98.17
3132;BME280;62090;52.330;9.104;2023-08-20T04:27:54;101601.56;;;21.25;97.42
3132;BME280;62090;52.330;9.104;2023-08-20T04:30:27;101543.78;;;20.96;98.04
3132;BME280;62090;52.330;9.104;2023-08-20T04:32:58;101632.59;;;21.39;98.47
3132;BME280;62090;52.330;9.104;2023-08-20T04:35:28;101622.22;;;21.40;98.29
3132;BME280;62090;52.330;9.104;2023-08-20T04:37:59;101556.72;;;21.00;97.91
3132;BME280;62090;52.330;9.104;2023-08-20T04:40:29;101591.22;;;21.18;97.37
3132;BME280;62090;52.330;9.104;2023-08-20T04:42:59;101574.78;;;21.11;96.88
3132;BME280;62090;52.330;9.104;2023-08-20T04:45:31;101625.72;;;21.29;96.53
3132;BME280;62090;52.330;9.104;2023-08-20T04:48:02;101549.03;;;20.79;96.76
3132;BME280;62090;52.330;9.104;2023-08-20T04:50:32;101618.84;;;21.23;96.95
3132;BME280;62090;52.330;9.104;2023-08-20T04:53:03;101623.94;;;21.37;97.51
3132;BME280;62090;52.330;9.104;2023-08-20T04:55:33;101632.59;;;21.39;97.05
3132;BME280;62090;52.330;9.104;2023-08-20T04:58:03;101637.81;;;21.31;97.95
3132;BME280;62090;52.330;9.104;2023-08-20T05:00:37;101641.25;;;21.33;97.80
3132;BME280;62090;52.330;9.104;2023-08-20T05:03:11;101601.63;;;21.08;98.21
3132;BME280;62090;52.330;9.104;2023-08-20T05:05:42;101642.06;;;21.44;98.20
3132;BME280;62090;52.330;9.104;2023-08-20T05:08:11;101648.09;;;21.51;97.74
3132;BME280;62090;52.330;9.104;2023-08-20T05:10:41;101642.00;;;21.52;97.63
3132;BME280;62090;52.330;9.104;2023-08-20T05:13:11;101633.34;;;21.55;98.43
3132;BME280;62090;52.330;9.104;2023-08-20T05:15:46;101548.88;;;21.19;97.91
3132;BME280;62090;52.330;9.104;2023-08-20T05:18:16;101620.28;;;21.68;97.90
3132;BME280;62090;52.330;9.104;2023-08-20T05:20:46;101588.34;;;21.59;97.15
3132;BME280;62090;52.330;9.104;2023-08-20T05:23:16;101531.56;;;21.25;96.59
3132;BME280;62090;52.330;9.104;2023-08-20T05:25:46;101536.00;;;20.99;98.29
3132;BME280;62090;52.330;9.104;2023-08-20T05:28:16;101620.47;;;21.39;99.73
3132;BME280;62090;52.330;9.104;2023-08-20T05:30:55;101605.00;;;21.30;99.37
3132;BME280;62090;52.330;9.104;2023-08-20T05:33:26;101608.34;;;21.46;99.54
3132;BME280;62090;52.330;9.104;2023-08-20T05:35:59;101605.59;;;21.64;98.40
3132;BME280;62090;52.330;9.104;2023-08-20T05:38:30;101609.97;;;21.62;98.28
3132;BME280;62090;52.330;9.104;2023-08-20T05:41:00;101624.63;;;21.63;98.85
3132;BME280;62090;52.330;9.104;2023-08-20T05:43:30;101600.47;;;21.58;99.33
3132;BME280;62090;52.330;9.104;2023-08-20T05:46:03;101608.16;;;21.72;99.18
3132;BME280;62090;52.330;9.104;2023-08-20T05:48:33;101603.75;;;21.78;98.61
3132;BME280;62090;52.330;9.104;2023-08-20T05:51:04;101607.22;;;21.80;98.39
3132;BME280;62090;52.330;9.104;2023-08-20T05:53:36;101601.97;;;21.94;98.08
3132;BME280;62090;52.330;9.104;2023-08-20T05:56:06;101541.41;;;21.87;97.31
3132;BME280;62090;52.330;9.104;2023-08-20T05:58:36;101573.16;;;22.17;96.67
3132;BME280;62090;52.330;9.104;2023-08-20T06:01:09;101574.63;;;22.42;94.92
3132;BME280;62090;52.330;9.104;2023-08-20T06:03:39;101619.84;;;23.01;92.77
3132;BME280;62090;52.330;9.104;2023-08-20T06:06:09;101617.69;;;23.35;90.59
3132;BME280;62090;52.330;9.104;2023-08-20T06:08:39;101524.53;;;23.01;89.12
3132;BME280;62090;52.330;9.104;2023-08-20T06:11:24;101599.03;;;23.65;87.66
3132;BME280;62090;52.330;9.104;2023-08-20T06:13:54;101588.06;;;23.97;86.09
3132;BME280;62090;52.330;9.104;2023-08-20T06:16:27;101583.19;;;24.29;84.97
3132;BME280;62090;52.330;9.104;2023-08-20T06:18:57;101611.25;;;24.60;84.41
3132;BME280;62090;52.330;9.104;2023-08-20T06:21:30;101608.75;;;24.54;85.26
3132;BME280;62090;52.330;9.104;2023-08-20T06:24:01;101571.88;;;24.30;85.22
3132;BME280;62090;52.330;9.104;2023-08-20T06:26:31;101616.53;;;24.57;86.10
3132;BME280;62090;52.330;9.104;2023-08-20T06:29:01;101615.81;;;24.93;85.40
3132;BME280;62090;52.330;9.104;2023-08-20T06:31:33;101595.25;;;25.19;81.96
3132;BME280;62090;52.330;9.104;2023-08-20T06:34:03;101616.31;;;25.49;80.68
3132;BME280;62090;52.330;9.104;2023-08-20T06:36:33;101536.00;;;25.23;80.49
3132;BME280;62090;52.330;9.104;2023-08-20T06:39:04;101618.25;;;25.78;80.20
3132;BME280;62090;52.330;9.104;2023-08-20T06:41:34;101579.50;;;25.61;79.63
3132;BME280;62090;52.330;9.104;2023-08-20T06:44:12;101608.44;;;25.87;79.15
3132;BME280;62090;52.330;9.104;2023-08-20T06:46:45;101619.34;;;26.04;78.84
3132;BME280;62090;52.330;9.104;2023-08-20T06:49:15;101600.34;;;25.98;78.14
3132;BME280;62090;52.330;9.104;2023-08-20T06:51:45;101619.53;;;26.31;76.84
3132;BME280;62090;52.330;9.104;2023-08-20T06:54:15;101613.97;;;26.09;75.58
3132;BME280;62090;52.330;9.104;2023-08-20T06:56:45;101626.41;;;26.01;76.99
3132;BME280;62090;52.330;9.104;2023-08-20T06:59:16;101611.31;;;25.77;77.70
3132;BME280;62090;52.330;9.104;2023-08-20T07:01:49;101639.19;;;26.12;77.71
3132;BME280;62090;52.330;9.104;2023-08-20T07:04:19;101620.16;;;26.06;76.76
3132;BME280;62090;52.330;9.104;2023-08-20T07:06:49;101626.97;;;25.78;77.96
3132;BME280;62090;52.330;9.104;2023-08-20T07:09:20;101518.13;;;25.06;77.97
3132;BME280;62090;52.330;9.104;2023-08-20T07:11:50;101615.78;;;25.73;78.35
3132;BME280;62090;52.330;9.104;2023-08-20T07:14:19;101628.22;;;25.62;77.98
3132;BME280;62090;52.330;9.104;2023-08-20T07:16:52;101619.66;;;25.54;79.20
3132;BME280;62090;52.330;9.104;2023-08-20T07:19:22;101617.91;;;25.56;80.21
3132;BME280;62090;52.330;9.104;2023-08-20T07:21:52;101621.38;;;25.56;79.89
3132;BME280;62090;52.330;9.104;2023-08-20T07:24:22;101617.91;;;25.54;80.17
3132;BME280;62090;52.330;9.104;2023-08-20T07:26:52;101534.00;;;24.97;80.51
3132;BME280;62090;52.330;9.104;2023-08-20T07:29:27;101588.94;;;25.30;81.00
3132;BME280;62090;52.330;9.104;2023-08-20T07:32:01;101625.75;;;25.56;81.55
3132;BME280;62090;52.330;9.104;2023-08-20T07:34:31;101626.00;;;25.44;79.89
3132;BME280;62090;52.330;9.104;2023-08-20T07:37:01;101570.50;;;24.99;79.74
3132;BME280;62090;52.330;9.104;2023-08-20T07:39:32;101624.47;;;25.35;79.10
3132;BME280;62090;52.330;9.104;2023-08-20T07:42:01;101597.03;;;25.17;80.04
3132;BME280;62090;52.330;9.104;2023-08-20T07:44:31;101637.34;;;25.43;80.35
3132;BME280;62090;52.330;9.104;2023-08-20T07:47:04;101607.66;;;25.48;78.72
3132;BME280;62090;52.330;9.104;2023-08-20T07:49:34;101604.25;;;25.43;79.23
3132;BME280;62090;52.330;9.104;2023-08-20T07:52:04;101617.06;;;25.54;78.60
3132;BME280;62090;52.330;9.104;2023-08-20T07:54:34;101624.09;;;25.50;78.48
3132;BME280;62090;52.330;9.104;2023-08-20T07:57:04;101626.91;;;25.43;79.13
3132;BME280;62090;52.330;9.104;2023-08-20T07:59:34;101625.59;;;25.63;78.19
3132;BME280;62090;52.330;9.104;2023-08-20T08:02:07;101625.28;;;25.76;78.83
3132;BME280;62090;52.330;9.104;2023-08-20T08:04:37;101594.41;;;25.54;79.20
3132;BME280;62090;52.330;9.104;2023-08-20T08:07:09;101629.72;;;25.72;78.12
3132;BME280;62090;52.330;9.104;2023-08-20T08:09:40;101628.63;;;25.81;77.96
3132;BME280;62090;52.330;9.104;2023-08-20T08:12:12;101587.03;;;25.73;77.66
3132;BME280;62090;52.330;9.104;2023-08-20T08:14:42;101623.19;;;25.90;77.95
3132;BME280;62090;52.330;9.104;2023-08-20T08:17:14;101623.22;;;25.88;77.19
3132;BME280;62090;52.330;9.104;2023-08-20T08:19:44;101626.81;;;25.84;78.33
3132;BME280;62090;52.330;9.104;2023-08-20T08:22:14;101621.63;;;25.83;78.04
3132;BME280;62090;52.330;9.104;2023-08-20T08:24:44;101625.75;;;25.91;78.42
3132;BME280;62090;52.330;9.104;2023-08-20T08:27:14;101635.06;;;26.01;77.29
3132;BME280;62090;52.330;9.104;2023-08-20T08:29:44;101638.19;;;26.17;76.65
3132;BME280;62090;52.330;9.104;2023-08-20T08:32:16;101637.09;;;26.26;77.06
3132;BME280;62090;52.330;9.104;2023-08-20T08:34:46;101623.38;;;26.16;75.81
3132;BME280;62090;52.330;9.104;2023-08-20T08:37:16;101608.00;;;26.05;75.76
3132;BME280;62090;52.330;9.104;2023-08-20T08:39:46;101636.84;;;26.35;75.83
3132;BME280;62090;52.330;9.104;2023-08-20T08:42:17;101641.00;;;26.43;75.37
3132;BME280;62090;52.330;9.104;2023-08-20T08:44:50;101589.31;;;26.19;75.26
3132;BME280;62090;52.330;9.104;2023-08-20T08:47:23;101640.56;;;26.59;75.74
3132;BME280;62090;52.330;9.104;2023-08-20T08:49:55;101644.66;;;26.69;75.46
3132;BME280;62090;52.330;9.104;2023-08-20T08:52:26;101648.47;;;26.86;74.52
3132;BME280;62090;52.330;9.104;2023-08-20T08:54:56;101649.16;;;26.95;74.33
3132;BME280;62090;52.330;9.104;2023-08-20T08:57:26;101640.97;;;27.07;74.39
3132;BME280;62090;52.330;9.104;2023-08-20T08:59:56;101543.84;;;26.57;71.46
3132;BME280;62090;52.330;9.104;2023-08-20T09:02:29;101494.91;;;26.33;72.30
3132;BME280;62090;52.330;9.104;2023-08-20T09:05:00;101642.00;;;27.29;73.17
3132;BME280;62090;52.330;9.104;2023-08-20T09:07:30;101512.38;;;26.60;72.74
3132;BME280;62090;52.330;9.104;2023-08-20T09:10:00;101634.53;;;27.45;71.14
3132;BME280;62090;52.330;9.104;2023-08-20T09:12:34;101591.47;;;27.27;69.55
3132;BME280;62090;52.330;9.104;2023-08-20T09:15:09;101630.53;;;27.62;69.98
3132;BME280;62090;52.330;9.104;2023-08-20T09:17:43;101637.38;;;27.66;70.89
3132;BME280;62090;52.330;9.104;2023-08-20T09:20:13;101637.00;;;27.77;70.63
3132;BME280;62090;52.330;9.104;2023-08-20T09:22:48;101630.78;;;27.81;69.24
3132;BME280;62090;52.330;9.104;2023-08-20T09:25:18;101633.97;;;27.91;69.52
3132;BME280;62090;52.330;9.104;2023-08-20T09:27:49;101560.97;;;27.54;68.71
3132;BME280;62090;52.330;9.104;2023-08-20T09:30:19;101624.97;;;27.98;67.43
3132;BME280;62090;52.330;9.104;2023-08-20T09:33:07;101635.72;;;28.17;65.78
3132;BME280;62090;52.330;9.104;2023-08-20T09:35:37;101612.47;;;28.06;66.56
3132;BME280;62090;52.330;9.104;2023-08-20T09:38:08;101647.78;;;28.22;65.66
3132;BME280;62090;52.330;9.104;2023-08-20T09:40:38;101597.81;;;28.00;62.28
3132;BME280;62090;52.330;9.104;2023-08-20T09:43:10;101627.59;;;28.24;63.63
3132;BME280;62090;52.330;9.104;2023-08-20T09:45:48;101620.53;;;28.26;64.94
3132;BME280;62090;52.330;9.104;2023-08-20T09:48:24;101588.59;;;28.15;64.10
3132;BME280;62090;52.330;9.104;2023-08-20T09:51:00;101407.13;;;27.08;63.86
3132;BME280;62090;52.330;9.104;2023-08-20T09:53:35;101613.50;;;28.51;64.25
3132;BME280;62090;52.330;9.104;2023-08-20T09:56:10;101614.53;;;28.47;62.13
3132;BME280;62090;52.330;9.104;2023-08-20T09:58:44;101614.34;;;28.52;65.26
3132;BME280;62090;52.330;9.104;2023-08-20T10:01:23;101615.47;;;28.70;64.93
3132;BME280;62090;52.330;9.104;2023-08-20T10:03:56;101619.00;;;28.69;63.43
3132;BME280;62090;52.330;9.104;2023-08-20T10:06:28;101625.06;;;28.71;62.80
3132;BME280;62090;52.330;9.104;2023-08-20T10:08:59;101622.53;;;28.68;62.17
3132;BME280;62090;52.330;9.104;2023-08-20T10:11:29;101626.91;;;28.67;59.35
3132;BME280;62090;52.330;9.104;2023-08-20T10:13:59;101626.41;;;28.58;58.69
3132;BME280;62090;52.330;9.104;2023-08-20T10:16:32;101637.75;;;28.58;59.15
3132;BME280;62090;52.330;9.104;2023-08-20T10:19:05;101631.84;;;28.51;60.34
3132;BME280;62090;52.330;9.104;2023-08-20T10:21:36;101597.72;;;28.53;61.47
3132;BME280;62090;52.330;9.104;2023-08-20T10:24:06;101634.09;;;28.87;62.95
3132;BME280;62090;52.330;9.104;2023-08-20T10:26:36;101629.81;;;28.84;62.66
3132;BME280;62090;52.330;9.104;2023-08-20T10:32:09;101630.72;;;28.83;61.59
3132;BME280;62090;52.330;9.104;2023-08-20T10:34:44;101630.94;;;29.01;60.97
3132;BME280;62090;52.330;9.104;2023-08-20T10:37:26;101638.28;;;29.14;60.07
3132;BME280;62090;52.330;9.104;2023-08-20T10:39:57;101637.81;;;29.26;59.92
3132;BME280;62090;52.330;9.104;2023-08-20T10:42:28;101605.66;;;28.98;59.51
3132;BME280;62090;52.330;9.104;2023-08-20T10:45:00;101639.56;;;29.26;58.58
3132;BME280;62090;52.330;9.104;2023-08-20T10:47:41;101611.47;;;29.06;58.50
3132;BME280;62090;52.330;9.104;2023-08-20T10:50:15;101647.19;;;29.10;57.82
3132;BME280;62090;52.330;9.104;2023-08-20T10:52:48;101634.53;;;28.98;59.01
3132;BME280;62090;52.330;9.104;2023-08-20T10:55:22;101634.97;;;29.09;58.78
3132;BME280;62090;52.330;9.104;2023-08-20T10:57:55;101610.06;;;28.98;58.15
3132;BME280;62090;52.330;9.104;2023-08-20T11:00:27;101627.91;;;29.11;57.48
3132;BME280;62090;52.330;9.104;2023-08-20T11:02:58;101632.94;;;29.17;57.48
3132;BME280;62090;52.330;9.104;2023-08-20T11:05:31;101623.63;;;29.30;59.05
3132;BME280;62090;52.330;9.104;2023-08-20T11:08:01;101628.44;;;29.43;58.48
3132;BME280;62090;52.330;9.104;2023-08-20T11:10:35;101623.78;;;29.27;58.76
3132;BME280;62090;52.330;9.104;2023-08-20T11:13:05;101633.38;;;29.28;58.97
3132;BME280;62090;52.330;9.104;2023-08-20T11:15:35;101628.88;;;29.30;59.19
3132;BME280;62090;52.330;9.104;2023-08-20T11:18:05;101632.78;;;29.44;58.19
3132;BME280;62090;52.330;9.104;2023-08-20T11:20:38;101624.78;;;29.47;58.17
3132;BME280;62090;52.330;9.104;2023-08-20T11:23:08;101621.72;;;29.35;57.58
3132;BME280;62090;52.330;9.104;2023-08-20T11:25:41;101620.94;;;29.33;58.93
3132;BME280;62090;52.330;9.104;2023-08-20T11:28:11;101575.19;;;28.94;58.43
3132;BME280;62090;52.330;9.104;2023-08-20T11:30:40;101635.47;;;29.19;59.25
3132;BME280;62090;52.330;9.104;2023-08-20T11:33:10;101613.25;;;29.06;58.94
3132;BME280;62090;52.330;9.104;2023-08-20T11:35:46;101622.53;;;29.14;58.94
3132;BME280;62090;52.330;9.104;2023-08-20T11:38:16;101531.00;;;28.60;58.72
3132;BME280;62090;52.330;9.104;2023-08-20T11:40:46;101625.28;;;29.34;58.06
3132;BME280;62090;52.330;9.104;2023-08-20T11:43:16;101611.91;;;29.17;57.79
3132;BME280;62090;52.330;9.104;2023-08-20T11:45:47;101616.94;;;29.23;58.99
3132;BME280;62090;52.330;9.104;2023-08-20T11:48:19;101625.94;;;29.16;57.35
3132;BME280;62090;52.330;9.104;2023-08-20T11:50:52;101591.34;;;29.07;57.77
3132;BME280;62090;52.330;9.104;2023-08-20T11:53:22;101564.28;;;29.05;58.18
3132;BME280;62090;52.330;9.104;2023-08-20T11:55:53;101595.25;;;29.40;59.17
3132;BME280;62090;52.330;9.104;2023-08-20T11:58:22;101615.09;;;29.69;57.59
3132;BME280;62090;52.330;9.104;2023-08-20T12:00:52;101610.03;;;29.64;55.82
3132;BME280;62090;52.330;9.104;2023-08-20T12:03:29;101616.31;;;29.82;56.32
3132;BME280;62090;52.330;9.104;2023-08-20T12:06:19;101605.44;;;29.91;56.56
3132;BME280;62090;52.330;9.104;2023-08-20T12:08:51;101619.63;;;30.28;56.50
3132;BME280;62090;52.330;9.104;2023-08-20T12:11:24;101575.84;;;30.27;57.89
3132;BME280;62090;52.330;9.104;2023-08-20T12:13:54;101614.13;;;30.54;54.46
3132;BME280;62090;52.330;9.104;2023-08-20T12:16:24;101546.25;;;30.03;53.55
3132;BME280;62090;52.330;9.104;2023-08-20T12:18:54;101601.88;;;30.33;54.13
3132;BME280;62090;52.330;9.104;2023-08-20T12:21:27;101608.59;;;30.40;57.48
3132;BME280;62090;52.330;9.104;2023-08-20T12:23:57;101598.53;;;30.49;56.01
3132;BME280;62090;52.330;9.104;2023-08-20T12:26:27;101580.88;;;30.51;56.70
3132;BME280;62090;52.330;9.104;2023-08-20T12:28:57;101595.00;;;30.50;54.38
3132;BME280;62090;52.330;9.104;2023-08-20T12:31:27;101579.38;;;30.26;55.48
3132;BME280;62090;52.330;9.104;2023-08-20T12:33:57;101592.34;;;30.30;55.01
3132;BME280;62090;52.330;9.104;2023-08-20T12:36:30;101547.81;;;30.07;56.23
3132;BME280;62090;52.330;9.104;2023-08-20T12:39:00;101512.75;;;29.86;55.00
3132;BME280;62090;52.330;9.104;2023-08-20T12:41:30;101589.66;;;30.32;56.35
3132;BME280;62090;52.330;9.104;2023-08-20T12:44:03;101594.78;;;30.35;56.16
3132;BME280;62090;52.330;9.104;2023-08-20T12:46:34;101552.91;;;30.10;56.93
3132;BME280;62090;52.330;9.104;2023-08-20T12:49:04;101579.13;;;30.32;55.05
3132;BME280;62090;52.330;9.104;2023-08-20T12:51:36;101588.72;;;30.33;54.77
3132;BME280;62090;52.330;9.104;2023-08-20T12:54:06;101592.97;;;30.35;56.89
3132;BME280;62090;52.330;9.104;2023-08-20T12:56:37;101593.06;;;30.34;56.15
3132;BME280;62090;52.330;9.104;2023-08-20T12:59:07;101589.22;;;30.41;56.43
3132;BME280;62090;52.330;9.104;2023-08-20T13:01:37;101584.59;;;30.46;56.43
3132;BME280;62090;52.330;9.104;2023-08-20T13:04:08;101568.00;;;30.45;56.25
3132;BME280;62090;52.330;9.104;2023-08-20T13:06:42;101493.94;;;30.15;56.71
3132;BME280;62090;52.330;9.104;2023-08-20T13:09:12;101585.97;;;30.75;56.53
3132;BME280;62090;52.330;9.104;2023-08-20T13:11:44;101579.34;;;30.85;56.20
3132;BME280;62090;52.330;9.104;2023-08-20T13:14:17;101575.41;;;30.93;54.15
3132;BME280;62090;52.330;9.104;2023-08-20T13:16:48;101580.63;;;30.95;54.87
3132;BME280;62090;52.330;9.104;2023-08-20T13:19:18;101568.94;;;31.00;54.17
3132;BME280;62090;52.330;9.104;2023-08-20T13:21:51;101571.84;;;30.94;53.00
3132;BME280;62090;52.330;9.104;2023-08-20T13:24:21;101561.25;;;30.96;54.91